Time;durP1;ratioP1;P1;durP2;ratioP2;P2;SDS_P1;SDS_P2;PMS_P1;PMS_P2;Temp;Humidity;BMP_temperature;BMP_pressure;BME280_temperature;BME280_humidity;BME280_pressure;Samples;Min_cycle;Max_cycle;Signal;HPM_P1;HPM_P2
2022/03/09 00:00:34;;;;;;;8.98;5.82;;;0.60;79.30;;;;;;5053575;28;20052;-61
2022/03/09 00:03:38;;;;;;;10.27;5.78;;;0.40;80.90;;;;;;5053909;28;20037;-60
2022/03/09 00:06:42;;;;;;;14.00;6.88;;;0.20;82.30;;;;;;5053686;28;20051;-60
2022/03/09 00:09:46;;;;;;;13.13;6.32;;;0.00;83.10;;;;;;5053927;28;20052;-60
2022/03/09 00:12:52;;;;;;;12.40;6.22;;;0.00;83.90;;;;;;5052888;28;20036;-59
2022/03/09 00:15:56;;;;;;;12.52;6.60;;;0.00;84.60;;;;;;5052830;28;20052;-60
2022/03/09 00:19:01;;;;;;;13.07;8.18;;;0.00;86.10;;;;;;5053460;28;20099;-60
2022/03/09 00:22:05;;;;;;;12.48;7.40;;;-0.20;85.90;;;;;;5052668;28;20048;-60
2022/03/09 00:25:09;;;;;;;12.27;6.60;;;-0.30;87.60;;;;;;5052954;28;20040;-60
2022/03/09 00:28:13;;;;;;;10.73;5.65;;;-0.20;88.10;;;;;;5053174;28;20038;-60
2022/03/09 00:31:17;;;;;;;12.10;6.43;;;-0.30;87.80;;;;;;5052464;28;20055;-60
2022/03/09 00:34:21;;;;;;;11.77;5.55;;;-0.30;87.90;;;;;;5052641;28;20056;-61
2022/03/09 00:37:25;;;;;;;11.90;5.80;;;-0.30;87.00;;;;;;5052747;28;20393;-60
2022/03/09 00:40:29;;;;;;;8.05;4.72;;;-0.30;87.30;;;;;;5052677;28;20036;-59
2022/03/09 00:43:34;;;;;;;9.38;4.85;;;-0.20;86.60;;;;;;5053030;28;20075;-60
2022/03/09 00:46:38;;;;;;;9.52;5.80;;;-0.20;86.70;;;;;;5052690;28;20064;-60
2022/03/09 00:49:42;;;;;;;9.85;5.63;;;-0.20;86.30;;;;;;5051617;28;20502;-61
2022/03/09 00:52:49;;;;;;;10.10;4.80;;;-0.10;86.00;;;;;;5052624;28;20052;-60
2022/03/09 00:55:53;;;;;;;9.73;5.32;;;0.00;86.90;;;;;;5052566;28;20056;-60
2022/03/09 00:58:57;;;;;;;8.88;5.15;;;0.00;86.90;;;;;;5051940;28;20047;-60
2022/03/09 01:02:02;;;;;;;8.65;4.70;;;0.00;86.80;;;;;;5051947;28;20054;-59
2022/03/09 01:05:05;;;;;;;7.55;4.60;;;0.00;86.40;;;;;;5052276;28;20404;-61
2022/03/09 01:08:10;;;;;;;9.60;5.18;;;0.00;85.70;;;;;;5052025;28;20044;-60
2022/03/09 01:11:14;;;;;;;16.05;6.43;;;-0.10;87.10;;;;;;5051594;28;20059;-61
2022/03/09 01:14:18;;;;;;;10.10;5.68;;;-0.20;88.10;;;;;;5052194;28;20467;-60
2022/03/09 01:17:22;;;;;;;11.90;6.63;;;-0.30;88.30;;;;;;5051656;28;20052;-60
2022/03/09 01:20:26;;;;;;;8.95;5.28;;;-0.30;90.00;;;;;;5051998;28;20044;-61
2022/03/09 01:23:30;;;;;;;8.27;5.13;;;-0.40;90.50;;;;;;5051728;28;20040;-61
2022/03/09 01:26:34;;;;;;;9.35;5.38;;;-0.50;90.50;;;;;;5051689;28;20060;-59
2022/03/09 01:29:38;;;;;;;9.90;5.72;;;-0.50;90.70;;;;;;5052054;28;20040;-60
2022/03/09 01:32:42;;;;;;;8.65;5.30;;;-0.50;90.30;;;;;;5051151;28;20047;-60
2022/03/09 01:35:46;;;;;;;10.93;6.07;;;-0.50;90.60;;;;;;5052140;28;20052;-60
2022/03/09 01:38:50;;;;;;;12.52;5.90;;;-0.50;91.30;;;;;;5051901;28;20052;-60
2022/03/09 01:41:55;;;;;;;11.70;7.30;;;-0.50;90.70;;;;;;5051062;28;20040;-60
2022/03/09 01:45:04;;;;;;;13.07;6.15;;;-0.50;90.90;;;;;;5051720;28;20060;-61
2022/03/09 01:48:09;;;;;;;10.25;5.78;;;-0.50;91.40;;;;;;5051432;28;20071;-60
2022/03/09 01:51:15;;;;;;;10.35;5.10;;;-0.40;91.10;;;;;;5050863;28;20048;-60
2022/03/09 01:54:19;;;;;;;10.10;5.45;;;-0.40;90.40;;;;;;5051574;28;20060;-60
2022/03/09 01:57:23;;;;;;;8.50;5.18;;;-0.30;90.30;;;;;;5050768;28;20048;-60
2022/03/09 02:00:28;;;;;;;10.48;5.13;;;-0.20;89.60;;;;;;5051055;28;20047;-60
2022/03/09 02:03:32;;;;;;;8.50;5.03;;;-0.10;89.00;;;;;;5050731;28;20044;-61
2022/03/09 02:06:37;;;;;;;11.68;5.45;;;0.00;89.20;;;;;;5051151;28;20036;-60
2022/03/09 02:09:42;;;;;;;9.00;5.38;;;0.00;88.40;;;;;;5050781;28;20035;-60
2022/03/09 02:12:45;;;;;;;9.75;5.20;;;0.00;88.80;;;;;;5050263;28;20041;-60
2022/03/09 02:15:49;;;;;;;8.35;4.65;;;-0.10;89.00;;;;;;5050886;28;20511;-60
2022/03/09 02:18:54;;;;;;;11.27;5.25;;;-0.20;89.20;;;;;;5050560;28;20063;-60
2022/03/09 02:22:35;;;;;;;8.95;4.70;;;-0.10;88.80;;;;;;5050006;28;20040;-60
2022/03/09 02:25:38;;;;;;;8.95;5.53;;;-0.20;89.60;;;;;;5050802;28;20503;-60
2022/03/09 02:28:47;;;;;;;10.77;6.13;;;-0.20;90.20;;;;;;5050420;28;20048;-60
2022/03/09 02:31:51;;;;;;;11.13;5.55;;;-0.30;90.50;;;;;;5050229;28;20040;-60
2022/03/09 02:34:56;;;;;;;10.68;5.50;;;-0.50;90.60;;;;;;5050003;28;20036;-60
2022/03/09 02:38:00;;;;;;;9.30;5.45;;;-0.50;90.70;;;;;;5050388;28;20052;-60
2022/03/09 02:41:05;;;;;;;12.00;5.65;;;-0.60;91.80;;;;;;5050069;28;20498;-60
2022/03/09 02:44:09;;;;;;;10.88;6.07;;;-0.70;92.30;;;;;;5050478;28;20044;-60
2022/03/09 02:47:13;;;;;;;11.23;5.60;;;-0.80;92.10;;;;;;5050377;28;20056;-60
2022/03/09 02:50:17;;;;;;;9.93;5.85;;;-0.20;93.70;;;;;;5049941;28;20071;-61
2022/03/09 02:53:21;;;;;;;11.30;6.30;;;-0.90;93.80;;;;;;5050431;28;20044;-60
2022/03/09 02:56:26;;;;;;;8.98;5.57;;;-1.10;93.50;;;;;;5050066;28;20048;-61
2022/03/09 02:59:30;;;;;;;9.10;5.63;;;-1.20;94.30;;;;;;5049912;28;20051;-60
2022/03/09 03:02:36;;;;;;;14.23;6.40;;;-1.30;94.70;;;;;;5049549;28;20055;-60
2022/03/09 03:05:41;;;;;;;9.65;5.50;;;-1.20;95.00;;;;;;5049620;28;20044;-59
2022/03/09 03:08:46;;;;;;;10.60;5.97;;;-1.10;95.00;;;;;;5050193;28;20044;-60
2022/03/09 03:11:50;;;;;;;12.73;6.03;;;-1.10;95.60;;;;;;5049239;28;20047;-60
2022/03/09 03:14:54;;;;;;;11.68;7.13;;;-1.10;95.50;;;;;;5049730;28;20052;-59
2022/03/09 03:17:59;;;;;;;12.63;6.38;;;-1.10;96.20;;;;;;5050230;28;20309;-59
2022/03/09 03:21:04;;;;;;;11.98;6.45;;;-1.10;96.90;;;;;;5048969;28;20040;-60
2022/03/09 03:24:08;;;;;;;14.73;6.70;;;-1.10;96.90;;;;;;5050201;28;20044;-60
2022/03/09 03:27:12;;;;;;;12.75;6.32;;;-1.10;97.20;;;;;;5050216;28;20048;-60
2022/03/09 03:30:16;;;;;;;23.88;10.05;;;-1.10;97.70;;;;;;5049613;28;20044;-60
2022/03/09 03:33:21;;;;;;;12.85;6.95;;;-1.20;98.10;;;;;;5049031;28;20048;-60
2022/03/09 03:36:25;;;;;;;12.48;7.45;;;-1.20;97.80;;;;;;5049873;28;20060;-60
2022/03/09 03:39:29;;;;;;;14.55;7.80;;;-1.00;97.30;;;;;;5049590;28;20112;-59
2022/03/09 03:42:33;;;;;;;14.40;7.10;;;-1.00;97.80;;;;;;5049586;28;20068;-60
2022/03/09 03:45:37;;;;;;;15.20;6.75;;;-1.10;97.60;;;;;;5049275;28;20092;-60
2022/03/09 03:48:42;;;;;;;13.18;7.47;;;-1.10;97.30;;;;;;5049875;28;20067;-60
2022/03/09 03:51:46;;;;;;;16.73;6.78;;;-1.10;97.90;;;;;;5048945;28;20388;-60
2022/03/09 03:54:50;;;;;;;13.27;6.32;;;-1.10;97.80;;;;;;5049592;28;20051;-60
2022/03/09 03:57:54;;;;;;;13.30;6.47;;;-1.20;98.30;;;;;;5049534;28;20056;-60
2022/03/09 04:00:58;;;;;;;13.00;7.05;;;-1.30;98.50;;;;;;5048805;28;20048;-60
2022/03/09 04:04:03;;;;;;;13.13;7.18;;;-1.20;98.80;;;;;;5049742;28;20040;-60
2022/03/09 04:07:06;;;;;;;17.45;8.15;;;-1.20;99.20;;;;;;5049575;28;20055;-60
2022/03/09 04:10:10;;;;;;;11.00;6.63;;;-1.20;99.40;;;;;;5049308;28;20052;-60
2022/03/09 04:13:14;;;;;;;13.82;8.00;;;-1.20;98.90;;;;;;5049421;28;20219;-60
2022/03/09 04:16:19;;;;;;;12.63;7.68;;;-1.10;98.60;;;;;;5049030;28;20392;-60
2022/03/09 04:19:23;;;;;;;13.07;7.55;;;-1.00;98.60;;;;;;5049217;28;20486;-60
2022/03/09 04:22:27;;;;;;;14.18;7.43;;;-0.90;98.00;;;;;;5048836;28;20048;-60
2022/03/09 04:25:31;;;;;;;13.43;7.07;;;-0.90;97.80;;;;;;5053107;28;20060;-60
2022/03/09 04:28:35;;;;;;;15.13;6.53;;;-0.90;98.20;;;;;;5052628;28;20502;-60
2022/03/09 04:31:39;;;;;;;13.75;6.85;;;-1.00;98.60;;;;;;5052003;28;20052;-60
2022/03/09 04:34:43;;;;;;;14.38;7.45;;;-1.10;99.60;;;;;;5052870;28;20063;-60
2022/03/09 04:37:47;;;;;;;18.15;7.88;;;-1.20;99.90;;;;;;5052718;28;20048;-60
2022/03/09 04:40:51;;;;;;;14.18;8.30;;;-1.20;99.90;;;;;;5052532;28;20063;-60
2022/03/09 04:43:56;;;;;;;15.07;7.75;;;-1.20;99.90;;;;;;5052761;28;20048;-60
2022/03/09 04:47:00;;;;;;;14.98;7.68;;;-1.30;99.90;;;;;;5053009;28;20048;-60
2022/03/09 04:50:05;;;;;;;12.77;6.88;;;-1.30;99.90;;;;;;5053099;28;20277;-60
2022/03/09 04:53:09;;;;;;;15.48;7.63;;;-1.20;99.90;;;;;;5052489;28;20407;-60
2022/03/09 04:56:15;;;;;;;14.95;7.57;;;-1.30;99.90;;;;;;5052789;28;20048;-60
2022/03/09 04:59:19;;;;;;;15.38;7.82;;;-1.30;99.90;;;;;;5052071;28;20399;-60
2022/03/09 05:02:22;;;;;;;14.90;7.93;;;-1.30;99.90;;;;;;5052058;28;20039;-60
2022/03/09 05:05:26;;;;;;;14.00;7.47;;;-1.40;99.90;;;;;;5052486;28;20408;-59
2022/03/09 05:08:31;;;;;;;17.02;8.52;;;-1.40;99.90;;;;;;5052491;28;20060;-60
2022/03/09 05:11:35;;;;;;;14.13;7.55;;;-1.40;99.90;;;;;;5051776;28;20051;-61
2022/03/09 05:14:39;;;;;;;15.63;8.05;;;-1.40;99.90;;;;;;5052279;28;20048;-60
2022/03/09 05:17:44;;;;;;;17.70;7.95;;;-1.40;99.90;;;;;;5052085;28;20044;-60
2022/03/09 05:20:48;;;;;;;15.43;8.00;;;-1.40;99.90;;;;;;5051270;28;20039;-59
2022/03/09 05:23:52;;;;;;;16.05;8.35;;;-1.50;99.90;;;;;;5052182;28;20051;-60
2022/03/09 05:26:56;;;;;;;14.65;7.43;;;-1.60;99.90;;;;;;5052183;28;20048;-60
2022/03/09 05:30:00;;;;;;;15.88;8.15;;;-1.60;99.90;;;;;;5052147;28;20064;-59
2022/03/09 05:33:04;;;;;;;17.58;8.95;;;-1.70;99.90;;;;;;5051826;28;20511;-59
2022/03/09 05:36:08;;;;;;;18.70;9.32;;;-1.70;99.90;;;;;;5051478;28;20590;-59
2022/03/09 05:39:12;;;;;;;16.35;8.27;;;-1.60;99.90;;;;;;5051660;28;20044;-60
2022/03/09 05:42:16;;;;;;;16.55;7.88;;;-1.50;99.90;;;;;;5051123;28;20035;-60
2022/03/09 05:45:20;;;;;;;15.93;7.32;;;-1.60;99.90;;;;;;5051802;28;20051;-60
2022/03/09 05:48:24;;;;;;;16.40;8.52;;;-1.50;99.90;;;;;;5051837;28;20064;-60
2022/03/09 05:51:28;;;;;;;19.90;9.48;;;-1.40;99.90;;;;;;5051019;28;20503;-60
2022/03/09 05:54:32;;;;;;;19.30;8.52;;;-1.40;99.90;;;;;;5051328;28;20052;-60
2022/03/09 05:57:36;;;;;;;21.77;9.40;;;-1.30;99.90;;;;;;5051137;28;20048;-60
2022/03/09 06:00:40;;;;;;;17.73;9.88;;;-1.20;99.90;;;;;;5050711;28;20507;-60
2022/03/09 06:03:44;;;;;;;16.55;9.80;;;-1.10;99.90;;;;;;5051132;28;20403;-60
2022/03/09 06:06:48;;;;;;;21.52;10.43;;;-1.10;99.90;;;;;;5051883;28;20039;-60
2022/03/09 06:09:52;;;;;;;22.48;11.00;;;-1.00;99.90;;;;;;5052328;28;20491;-60
2022/03/09 06:12:56;;;;;;;23.63;10.65;;;-0.90;99.90;;;;;;5051181;28;20056;-60
2022/03/09 06:16:00;;;;;;;18.65;8.65;;;-0.90;99.90;;;;;;5051275;28;20040;-60
2022/03/09 06:19:04;;;;;;;17.02;9.95;;;-0.80;99.90;;;;;;5050941;28;20056;-60
2022/03/09 06:22:08;;;;;;;21.15;10.70;;;-0.60;99.90;;;;;;5050104;28;20051;-60
2022/03/09 06:25:14;;;;;;;21.83;10.13;;;-0.40;99.90;;;;;;5051041;28;20120;-60
2022/03/09 06:28:18;;;;;;;16.38;8.85;;;1.70;99.90;;;;;;5051056;28;20048;-61
2022/03/09 06:31:22;;;;;;;18.52;8.23;;;4.80;97.30;;;;;;5050108;28;20048;-60
2022/03/09 06:34:26;;;;;;;15.70;8.32;;;8.20;92.00;;;;;;5050511;28;20487;-60
2022/03/09 06:37:30;;;;;;;15.15;8.30;;;11.00;84.10;;;;;;5049783;28;20048;-60
2022/03/09 06:40:34;;;;;;;13.55;8.65;;;13.40;75.70;;;;;;5050333;28;20396;-61
2022/03/09 06:43:38;;;;;;;12.65;8.02;;;15.00;69.90;;;;;;5050670;28;20483;-61
2022/03/09 06:46:42;;;;;;;13.10;8.38;;;15.70;65.90;;;;;;5049932;28;20057;-61
2022/03/09 06:49:47;;;;;;;12.82;8.75;;;16.40;64.50;;;;;;5050718;28;20048;-61
2022/03/09 06:52:51;;;;;;;16.75;9.20;;;16.90;63.60;;;;;;5049611;28;20392;-59
2022/03/09 06:55:56;;;;;;;14.40;8.63;;;17.10;61.40;;;;;;5050093;28;20032;-59
2022/03/09 06:58:59;;;;;;;13.57;8.90;;;17.20;62.10;;;;;;5049921;28;20052;-59
2022/03/09 07:02:04;;;;;;;13.40;9.00;;;17.50;60.90;;;;;;5025330;28;20558;-59
2022/03/09 07:05:09;;;;;;;11.98;8.65;;;18.00;59.70;;;;;;5022366;28;20064;-62
2022/03/09 07:08:14;;;;;;;13.80;9.95;;;18.50;58.60;;;;;;5022406;28;20040;-62
2022/03/09 07:11:18;;;;;;;13.32;10.45;;;18.40;57.50;;;;;;5027097;28;20048;-61
2022/03/09 07:14:23;;;;;;;14.07;9.85;;;17.00;58.00;;;;;;5025911;28;20053;-61
2022/03/09 07:17:27;;;;;;;14.48;9.65;;;16.20;59.70;;;;;;5020426;28;20052;-61
2022/03/09 07:20:31;;;;;;;14.40;9.95;;;15.40;60.00;;;;;;5021617;28;20500;-62
2022/03/09 07:23:36;;;;;;;15.45;10.45;;;14.20;60.50;;;;;;5028466;28;20504;-61
2022/03/09 07:26:42;;;;;;;18.77;10.48;;;12.70;63.10;;;;;;5024784;28;20040;-61
2022/03/09 07:29:46;;;;;;;16.38;10.45;;;12.10;64.00;;;;;;5021278;28;20084;-61
2022/03/09 07:32:50;;;;;;;18.77;11.18;;;11.20;65.50;;;;;;5022723;28;20400;-61
2022/03/09 07:35:56;;;;;;;18.63;11.13;;;11.50;66.30;;;;;;5022483;28;20531;-62
2022/03/09 07:39:00;;;;;;;20.15;12.10;;;13.40;63.70;;;;;;5027114;28;20058;-61
2022/03/09 07:42:05;;;;;;;20.90;11.45;;;14.60;62.30;;;;;;5023761;28;20323;-61
2022/03/09 07:45:09;;;;;;;17.48;12.93;;;16.30;61.10;;;;;;5027070;28;20040;-62
2022/03/09 07:48:13;;;;;;;23.33;12.57;;;17.60;58.80;;;;;;5023203;28;20048;-62
2022/03/09 07:51:18;;;;;;;19.65;13.57;;;18.90;57.60;;;;;;5027200;28;20044;-63
2022/03/09 07:54:22;;;;;;;24.02;15.50;;;20.30;55.40;;;;;;5025174;28;20048;-62
2022/03/09 07:57:27;;;;;;;20.65;14.85;;;21.70;53.90;;;;;;5024268;28;20404;-63
2022/03/09 08:00:31;;;;;;;20.67;14.68;;;22.40;52.70;;;;;;5031171;28;20640;-62
2022/03/09 08:03:36;;;;;;;21.67;14.80;;;22.60;51.50;;;;;;5026550;28;20036;-63
2022/03/09 08:06:40;;;;;;;20.52;14.38;;;23.00;51.70;;;;;;5024486;28;20081;-63
2022/03/09 08:09:44;;;;;;;20.17;14.32;;;23.30;50.80;;;;;;5025133;28;20534;-63
2022/03/09 08:12:48;;;;;;;16.95;13.52;;;24.20;49.10;;;;;;5027389;28;20048;-63
2022/03/09 08:15:52;;;;;;;16.67;13.30;;;23.50;50.30;;;;;;5040987;28;20048;-63
2022/03/09 08:18:56;;;;;;;16.90;12.80;;;24.20;49.10;;;;;;5031811;28;20044;-63
2022/03/09 08:22:00;;;;;;;17.70;13.48;;;23.50;49.10;;;;;;5023873;28;20040;-63
2022/03/09 08:25:05;;;;;;;18.45;14.38;;;23.70;48.70;;;;;;5030989;28;20044;-62
2022/03/09 08:28:09;;;;;;;19.55;15.20;;;20.40;47.90;;;;;;5026950;28;20040;-60
2022/03/09 08:31:13;;;;;;;19.17;14.60;;;17.70;53.20;;;;;;5025933;28;20032;-59
2022/03/09 08:34:18;;;;;;;21.17;14.05;;;19.30;51.60;;;;;;5026978;28;20024;-60
2022/03/09 08:37:22;;;;;;;18.95;13.30;;;19.90;51.60;;;;;;5029909;28;20045;-60
2022/03/09 08:40:27;;;;;;;20.95;15.45;;;22.80;50.50;;;;;;5029123;28;20044;-60
2022/03/09 08:43:31;;;;;;;21.13;15.02;;;24.10;48.40;;;;;;5029255;28;20032;-60
2022/03/09 08:46:37;;;;;;;20.23;14.50;;;23.90;47.50;;;;;;5030054;28;20041;-60
2022/03/09 08:49:41;;;;;;;20.08;14.93;;;25.30;47.70;;;;;;5031365;28;20086;-60
2022/03/09 08:52:45;;;;;;;20.02;14.45;;;25.40;46.30;;;;;;5027506;28;20629;-63
2022/03/09 08:55:50;;;;;;;19.42;15.60;;;25.50;46.20;;;;;;5026314;28;20036;-63
2022/03/09 08:58:55;;;;;;;19.13;14.25;;;24.50;47.00;;;;;;5027159;28;20056;-63
2022/03/09 09:02:01;;;;;;;20.75;14.60;;;24.80;46.60;;;;;;5025830;28;20048;-63
2022/03/09 09:05:05;;;;;;;16.98;14.45;;;25.80;46.40;;;;;;5026099;28;20045;-63
2022/03/09 09:08:09;;;;;;;17.85;14.55;;;26.60;46.00;;;;;;5029887;28;20396;-60
2022/03/09 09:11:13;;;;;;;16.60;13.35;;;27.30;45.30;;;;;;5023436;28;20129;-60
2022/03/09 09:14:17;;;;;;;18.30;14.00;;;28.30;44.60;;;;;;5025753;28;20060;-60
2022/03/09 09:17:21;;;;;;;16.30;13.88;;;29.30;43.70;;;;;;5031254;28;20048;-61
2022/03/09 09:20:26;;;;;;;15.65;12.70;;;30.10;43.00;;;;;;5027911;28;20060;-61
2022/03/09 09:23:30;;;;;;;14.48;11.77;;;30.20;42.20;;;;;;5028782;28;20095;-60
2022/03/09 09:26:34;;;;;;;16.13;12.27;;;30.60;41.90;;;;;;5037689;28;20440;-61
2022/03/09 09:29:38;;;;;;;17.35;13.25;;;31.00;41.60;;;;;;5021097;28;20048;-61
2022/03/09 09:32:45;;;;;;;27.27;14.10;;;31.10;41.70;;;;;;5024915;28;20496;-61
2022/03/09 09:35:50;;;;;;;15.82;12.27;;;31.70;41.00;;;;;;5025771;28;20036;-60
2022/03/09 09:38:54;;;;;;;14.85;11.07;;;31.60;40.00;;;;;;5029388;28;20028;-61
2022/03/09 09:41:58;;;;;;;13.45;10.77;;;32.10;40.70;;;;;;5023817;28;20040;-60
2022/03/09 09:45:04;;;;;;;12.57;10.90;;;32.30;39.80;;;;;;5022691;28;20052;-60
2022/03/09 09:48:10;;;;;;;13.27;11.40;;;32.50;39.90;;;;;;5025492;28;20606;-62
2022/03/09 09:51:15;;;;;;;12.95;10.48;;;32.60;39.20;;;;;;5025363;28;20045;-62
2022/03/09 09:54:29;;;;;;;14.02;10.60;;;32.50;39.50;;;;;;5026365;28;20044;-61
2022/03/09 09:57:35;;;;;;;12.43;9.82;;;32.10;38.60;;;;;;4990848;28;20025;-62
2022/03/09 10:00:39;;;;;;;11.77;9.40;;;31.50;39.60;;;;;;5023602;28;20032;-62
2022/03/09 10:03:44;;;;;;;11.23;9.32;;;32.20;39.10;;;;;;5025569;28;20048;-61
2022/03/09 10:06:49;;;;;;;12.50;9.43;;;32.30;38.30;;;;;;5026209;28;20756;-61
2022/03/09 10:09:57;;;;;;;9.70;8.70;;;33.80;38.30;;;;;;5024352;28;20063;-61
2022/03/09 10:13:18;;;;;;;10.75;7.78;;;34.80;37.90;;;;;;5022367;28;20045;-61
2022/03/09 10:16:23;;;;;;;10.30;9.02;;;34.50;36.50;;;;;;5024119;28;20397;-61
2022/03/09 10:19:33;;;;;;;11.70;9.25;;;32.80;34.60;;;;;;5022800;28;20056;-61
2022/03/09 10:22:41;;;;;;;11.43;9.15;;;29.70;35.50;;;;;;5020822;28;20068;-61
2022/03/09 10:25:47;;;;;;;18.00;8.50;;;28.90;35.80;;;;;;5021463;28;20035;-61
2022/03/09 10:29:06;;;;;;;10.70;8.32;;;29.00;39.20;;;;;;5023191;28;20052;-62
2022/03/09 10:32:10;;;;;;;10.10;7.72;;;30.70;38.10;;;;;;5022346;28;20036;-61
2022/03/09 10:35:19;;;;;;;10.63;7.10;;;32.50;37.60;;;;;;5022959;28;20052;-62
2022/03/09 10:38:26;;;;;;;12.00;6.95;;;33.00;37.20;;;;;;5019405;28;20805;-62
2022/03/09 10:41:33;;;;;;;13.63;8.05;;;33.90;36.00;;;;;;5026423;28;20408;-63
2022/03/09 10:44:49;;;;;;;10.77;6.72;;;33.80;36.00;;;;;;5022403;28;20052;-62
2022/03/09 10:47:53;;;;;;;8.07;7.28;;;33.40;36.00;;;;;;5018881;28;20040;-61
2022/03/09 10:50:57;;;;;;;8.75;7.85;;;32.50;35.40;;;;;;5021585;28;20041;-62
2022/03/09 10:54:16;;;;;;;8.70;7.40;;;32.50;36.10;;;;;;5014073;28;20060;-62
2022/03/09 10:57:29;;;;;;;10.20;7.70;;;32.50;35.60;;;;;;5016183;28;20105;-62
2022/03/09 11:00:37;;;;;;;11.07;8.20;;;34.30;36.60;;;;;;5023628;28;20506;-62
2022/03/09 11:03:43;;;;;;;8.85;7.43;;;35.50;35.20;;;;;;5023754;28;20404;-62
2022/03/09 11:06:49;;;;;;;7.85;7.05;;;34.70;34.90;;;;;;5022754;28;20404;-62
2022/03/09 11:09:54;;;;;;;9.05;6.63;;;35.00;36.30;;;;;;5029256;28;20040;-62
2022/03/09 11:12:58;;;;;;;9.85;7.22;;;35.00;36.00;;;;;;5024914;28;20032;-62
2022/03/09 11:16:03;;;;;;;8.00;7.20;;;35.20;35.50;;;;;;5023544;28;20056;-63
2022/03/09 11:19:07;;;;;;;7.28;6.57;;;35.00;35.40;;;;;;5018804;28;20056;-62
2022/03/09 11:22:11;;;;;;;7.95;6.75;;;35.30;35.70;;;;;;5022485;28;20044;-62
2022/03/09 11:25:22;;;;;;;8.23;6.90;;;36.40;35.50;;;;;;5023846;28;20048;-62
2022/03/09 11:28:38;;;;;;;7.80;6.90;;;36.20;34.90;;;;;;5027648;28;20040;-62
2022/03/09 11:31:46;;;;;;;7.55;6.72;;;35.00;34.80;;;;;;5023244;28;20037;-62
2022/03/09 11:34:52;;;;;;;6.97;5.82;;;35.80;34.70;;;;;;5028070;28;20113;-62
2022/03/09 11:37:56;;;;;;;7.40;6.55;;;35.40;34.80;;;;;;5030512;28;20044;-62
2022/03/09 11:41:20;;;;;;;7.20;6.43;;;29.00;34.90;;;;;;5031593;28;20488;-62
2022/03/09 11:44:29;;;;;;;7.88;6.88;;;31.80;36.30;;;;;;5028677;28;20041;-62
2022/03/09 11:48:08;;;;;;;7.72;6.40;;;33.50;35.80;;;;;;5029760;28;20056;-62
2022/03/09 11:51:13;;;;;;;8.97;6.77;;;34.90;35.10;;;;;;5030806;28;20048;-62
2022/03/09 11:54:58;;;;;;;7.28;6.47;;;33.60;35.90;;;;;;5030275;28;20045;-62
2022/03/09 11:58:05;;;;;;;7.95;6.70;;;34.10;35.20;;;;;;5029069;28;20290;-62
2022/03/09 12:01:12;;;;;;;9.23;7.35;;;34.40;34.00;;;;;;5035617;28;20044;-62
2022/03/09 12:04:45;;;;;;;7.47;6.25;;;33.10;34.80;;;;;;5029311;28;20045;-62
2022/03/09 12:07:49;;;;;;;7.47;6.40;;;33.40;35.20;;;;;;5032216;28;20032;-62
2022/03/09 12:10:55;;;;;;;8.00;6.32;;;34.00;35.20;;;;;;5028253;28;20505;-62
2022/03/09 12:13:59;;;;;;;8.90;6.30;;;30.30;35.20;;;;;;5030420;28;20032;-62
2022/03/09 12:17:04;;;;;;;7.03;5.90;;;31.60;36.80;;;;;;5025021;28;20444;-62
2022/03/09 12:20:29;;;;;;;9.68;6.13;;;32.50;36.40;;;;;;5029923;28;20052;-62
2022/03/09 12:23:56;;;;;;;7.75;6.15;;;32.40;36.20;;;;;;5024832;28;20052;-62
2022/03/09 12:27:00;;;;;;;8.85;7.35;;;33.20;36.10;;;;;;5031601;28;20048;-62
2022/03/09 12:30:25;;;;;;;6.80;6.10;;;34.40;35.00;;;;;;5020382;28;20049;-62
2022/03/09 12:33:33;;;;;;;7.82;5.68;;;33.50;35.00;;;;;;5031581;28;20048;-62
2022/03/09 12:36:38;;;;;;;10.95;5.72;;;32.90;34.80;;;;;;5026043;28;20483;-62
2022/03/09 12:39:52;;;;;;;6.90;5.78;;;33.00;36.40;;;;;;5021585;28;20044;-62
2022/03/09 12:42:59;;;;;;;6.43;5.82;;;31.70;35.50;;;;;;5026825;28;20384;-62
2022/03/09 12:46:03;;;;;;;7.97;5.60;;;30.90;35.30;;;;;;5024415;28;20044;-62
2022/03/09 12:49:14;;;;;;;7.22;5.28;;;30.50;35.50;;;;;;5022379;28;20534;-62
2022/03/09 12:52:20;;;;;;;7.97;5.23;;;31.00;35.40;;;;;;5024144;28;20037;-62
2022/03/09 12:55:24;;;;;;;6.00;4.78;;;31.20;36.30;;;;;;5027350;28;20052;-61
2022/03/09 12:58:29;;;;;;;6.78;5.22;;;30.30;35.40;;;;;;5027571;28;20052;-62
2022/03/09 13:01:34;;;;;;;5.63;4.85;;;29.60;35.90;;;;;;5021979;28;20060;-62
2022/03/09 13:04:38;;;;;;;7.25;4.57;;;30.10;36.70;;;;;;5036796;28;20040;-63
2022/03/09 13:07:59;;;;;;;6.60;5.22;;;30.40;36.60;;;;;;5025790;28;20048;-62
2022/03/09 13:11:04;;;;;;;6.03;4.55;;;29.50;35.90;;;;;;5025165;28;20054;-62
2022/03/09 13:14:17;;;;;;;6.78;4.68;;;29.40;35.70;;;;;;5026427;28;20045;-61
2022/03/09 13:17:22;;;;;;;6.22;3.85;;;28.70;37.00;;;;;;5026440;28;20805;-62
2022/03/09 13:20:26;;;;;;;5.22;4.10;;;30.20;37.40;;;;;;5027023;28;20416;-62
2022/03/09 13:23:39;;;;;;;5.28;4.13;;;31.10;36.80;;;;;;5023110;28;20326;-62
2022/03/09 13:26:46;;;;;;;9.77;3.88;;;31.40;36.40;;;;;;5021160;28;20483;-62
2022/03/09 13:29:50;;;;;;;5.93;3.92;;;31.10;36.40;;;;;;5027715;28;20515;-61
2022/03/09 13:32:54;;;;;;;4.63;3.85;;;30.90;36.40;;;;;;5028245;28;20041;-61
2022/03/09 13:35:58;;;;;;;5.45;3.67;;;30.90;35.70;;;;;;5030938;28;20048;-62
2022/03/09 13:39:02;;;;;;;5.40;4.30;;;31.30;35.90;;;;;;5032257;28;20041;-62
2022/03/09 13:42:12;;;;;;;8.23;3.80;;;29.50;34.40;;;;;;5028914;28;20408;-61
2022/03/09 13:45:20;;;;;;;4.65;4.07;;;29.70;36.60;;;;;;5026927;28;20053;-61
2022/03/09 13:48:25;;;;;;;8.25;4.22;;;27.60;36.50;;;;;;5026943;28;20052;-61
2022/03/09 13:51:33;;;;;;;7.63;3.75;;;28.30;35.60;;;;;;5027765;28;20041;-61
2022/03/09 13:54:47;;;;;;;7.47;3.50;;;26.50;36.00;;;;;;5026505;28;20044;-61
2022/03/09 13:58:01;;;;;;;7.00;3.90;;;26.20;38.00;;;;;;5023744;28;20037;-61
2022/03/09 14:01:17;;;;;;;3.78;3.38;;;27.00;37.70;;;;;;5023578;28;20048;-61
2022/03/09 14:04:21;;;;;;;4.03;3.00;;;27.40;38.00;;;;;;5029420;28;20040;-61
2022/03/09 14:07:36;;;;;;;6.03;3.25;;;25.40;37.20;;;;;;5022194;28;20395;-61
2022/03/09 14:10:41;;;;;;;6.85;3.30;;;25.70;38.50;;;;;;5023667;28;20057;-61
2022/03/09 14:14:06;;;;;;;4.50;3.40;;;24.40;38.80;;;;;;5025290;28;20045;-61
2022/03/09 14:17:10;;;;;;;4.80;3.10;;;25.60;38.50;;;;;;5027005;28;20626;-61
2022/03/09 14:20:14;;;;;;;9.75;3.70;;;25.50;38.20;;;;;;5030670;28;20044;-61
2022/03/09 14:23:19;;;;;;;4.53;3.20;;;25.90;38.50;;;;;;5029804;28;20408;-61
2022/03/09 14:26:25;;;;;;;4.60;2.85;;;27.00;38.50;;;;;;5028641;28;20044;-61
2022/03/09 14:29:30;;;;;;;5.47;2.95;;;27.20;38.70;;;;;;5026021;28;20041;-62
2022/03/09 14:32:34;;;;;;;5.90;3.38;;;26.60;38.30;;;;;;5028501;28;20036;-62
2022/03/09 14:35:39;;;;;;;3.90;3.30;;;26.30;38.30;;;;;;5030184;28;20060;-61
2022/03/09 14:38:46;;;;;;;4.60;3.10;;;25.90;38.90;;;;;;5016975;28;20048;-61
2022/03/09 14:41:50;;;;;;;6.15;3.00;;;25.70;38.40;;;;;;5029886;28;20064;-61
2022/03/09 14:44:57;;;;;;;12.60;3.15;;;25.60;38.70;;;;;;5030198;28;20376;-61
2022/03/09 14:48:02;;;;;;;6.72;5.22;;;25.80;38.50;;;;;;5029847;28;20495;-62
2022/03/09 14:51:06;;;;;;;6.15;3.53;;;26.00;39.10;;;;;;5019189;28;20419;-62
2022/03/09 14:54:12;;;;;;;6.47;3.85;;;26.40;39.30;;;;;;5024143;28;20503;-62
2022/03/09 14:57:17;;;;;;;4.97;3.60;;;26.00;38.40;;;;;;5024604;28;20057;-62
2022/03/09 15:00:21;;;;;;;13.15;3.95;;;26.00;38.50;;;;;;5023062;28;20384;-62
2022/03/09 15:03:25;;;;;;;4.97;3.63;;;25.70;38.90;;;;;;5022648;28;20060;-62
2022/03/09 15:06:31;;;;;;;4.88;3.58;;;25.10;39.80;;;;;;5029418;28;20052;-62
2022/03/09 15:09:35;;;;;;;6.78;3.72;;;25.00;39.20;;;;;;5013149;28;20052;-61
2022/03/09 15:12:39;;;;;;;4.78;3.40;;;24.60;39.30;;;;;;5023137;28;20049;-61
2022/03/09 15:15:43;;;;;;;4.18;3.13;;;24.50;39.80;;;;;;5014941;28;20056;-61
2022/03/09 15:18:48;;;;;;;6.70;3.20;;;24.60;39.90;;;;;;5020238;28;20056;-61
2022/03/09 15:21:54;;;;;;;6.82;3.92;;;24.60;40.00;;;;;;5018339;28;20052;-61
2022/03/09 15:24:59;;;;;;;6.72;4.07;;;24.30;39.90;;;;;;5025354;28;20048;-61
2022/03/09 15:28:03;;;;;;;6.03;3.38;;;23.50;40.20;;;;;;5029217;28;20060;-61
2022/03/09 15:31:07;;;;;;;8.00;5.22;;;22.90;40.70;;;;;;5028420;28;20511;-61
2022/03/09 15:34:10;;;;;;;9.20;4.18;;;22.00;40.80;;;;;;5028603;28;20082;-61
2022/03/09 15:37:15;;;;;;;5.43;3.63;;;21.40;41.40;;;;;;5029191;28;20392;-61
2022/03/09 15:40:19;;;;;;;6.85;3.83;;;20.70;43.30;;;;;;5019941;28;20402;-61
2022/03/09 15:43:23;;;;;;;5.90;3.92;;;20.10;43.00;;;;;;5020155;28;20044;-61
2022/03/09 15:46:30;;;;;;;6.72;3.85;;;19.30;43.20;;;;;;5027124;28;20048;-61
2022/03/09 15:49:34;;;;;;;6.05;3.95;;;18.90;44.80;;;;;;5023101;28;20041;-61
2022/03/09 15:52:40;;;;;;;6.93;4.13;;;18.40;44.80;;;;;;5029018;28;20042;-60
2022/03/09 15:55:44;;;;;;;6.35;3.90;;;18.00;45.60;;;;;;5029832;28;20049;-61
2022/03/09 15:58:48;;;;;;;8.15;4.55;;;17.70;45.50;;;;;;5028773;28;20044;-60